Time;durP1;ratioP1;P1;durP2;ratioP2;P2;SDS_P1;SDS_P2;PMS_P1;PMS_P2;Temp;Humidity;BMP_temperature;BMP_pressure;BME280_temperature;BME280_humidity;BME280_pressure;Samples;Min_cycle;Max_cycle;Signal;HPM_P1;HPM_P2
2021/07/10 00:03:56;;;;;;;;;18.25;18.25;;;;;;;;8837207;40;10458;-62
2021/07/10 00:10:00;;;;;;;;;18.50;18.50;;;;;;;;8826525;40;10610;-60
2021/07/10 00:16:02;;;;;;;;;22.25;21.25;;;;;;;;8824806;40;10626;-62
2021/07/10 00:22:04;;;;;;;;;20.75;19.50;;;;;;;;8823641;40;10573;-62
2021/07/10 00:28:07;;;;;;;;;17.25;17.25;;;;;;;;8824843;40;10653;-61
2021/07/10 00:34:09;;;;;;;;;18.00;18.00;;;;;;;;8823739;40;11250;-61
2021/07/10 00:40:12;;;;;;;;;20.00;20.00;;;;;;;;8847226;40;10833;-62
2021/07/10 00:46:18;;;;;;;;;17.25;16.00;;;;;;;;8836043;40;10667;-60
2021/07/10 00:52:20;;;;;;;;;21.75;21.00;;;;;;;;8823530;40;10571;-62
2021/07/10 00:58:22;;;;;;;;;22.00;21.00;;;;;;;;8822420;40;10921;-61
2021/07/10 01:04:24;;;;;;;;;22.00;18.50;;;;;;;;8823836;40;10702;-61
2021/07/10 01:10:26;;;;;;;;;23.50;20.25;;;;;;;;8823264;40;10870;-61
2021/07/10 01:16:28;;;;;;;;;21.25;19.00;;;;;;;;8823750;40;10807;-62
2021/07/10 01:22:32;;;;;;;;;21.50;19.00;;;;;;;;8823589;40;10840;-62
2021/07/10 01:28:34;;;;;;;;;23.50;21.50;;;;;;;;8822095;40;10938;-61
2021/07/10 01:34:36;;;;;;;;;21.33;21.33;;;;;;;;8823699;40;10419;-62
2021/07/10 01:40:38;;;;;;;;;22.00;22.00;;;;;;;;8823074;40;10063;-60
2021/07/10 01:46:40;;;;;;;;;19.33;18.67;;;;;;;;8822160;40;10254;-61
2021/07/10 01:52:43;;;;;;;;;24.00;24.00;;;;;;;;8822305;40;11424;-62
2021/07/10 01:58:44;;;;;;;;;20.67;17.67;;;;;;;;8825036;40;11058;-61
2021/07/10 02:04:53;;;;;;;;;25.33;22.00;;;;;;;;8826337;40;10106;-61
2021/07/10 02:10:57;;;;;;;;;23.00;22.00;;;;;;;;8825924;40;10177;-62
2021/07/10 02:16:59;;;;;;;;;25.33;23.00;;;;;;;;8825644;40;10246;-62
2021/07/10 02:23:01;;;;;;;;;23.00;23.00;;;;;;;;8826001;40;9834;-62
2021/07/10 02:29:05;;;;;;;;;22.67;22.67;;;;;;;;8849551;40;10535;-61
2021/07/10 02:35:09;;;;;;;;;23.33;22.00;;;;;;;;8848757;40;10254;-62
2021/07/10 02:41:12;;;;;;;;;25.33;25.33;;;;;;;;8842540;40;10389;-61
2021/07/10 02:47:14;;;;;;;;;25.00;22.33;;;;;;;;8838550;40;9859;-62
2021/07/10 02:53:15;;;;;;;;;20.00;18.67;;;;;;;;8849404;40;10317;-62
2021/07/10 02:59:17;;;;;;;;;15.00;14.67;;;;;;;;8841838;40;10661;-61
2021/07/10 03:05:19;;;;;;;;;21.33;20.00;;;;;;;;8825266;40;10221;-61
2021/07/10 03:11:21;;;;;;;;;23.00;19.00;;;;;;;;8825021;40;10404;-61
2021/07/10 03:17:24;;;;;;;;;25.00;23.33;;;;;;;;8824953;40;10472;-61
2021/07/10 03:23:26;;;;;;;;;21.67;21.67;;;;;;;;8825055;40;10157;-62
2021/07/10 03:29:28;;;;;;;;;28.67;27.00;;;;;;;;8847922;40;10134;-62
2021/07/10 03:35:30;;;;;;;;;21.67;20.67;;;;;;;;8832215;40;10270;-62
2021/07/10 03:41:32;;;;;;;;;20.00;19.00;;;;;;;;8825288;40;10174;-61
2021/07/10 03:47:34;;;;;;;;;22.67;20.67;;;;;;;;8838057;40;10662;-61
2021/07/10 03:53:37;;;;;;;;;26.33;25.33;;;;;;;;8849702;40;10875;-61
2021/07/10 03:59:39;;;;;;;;;22.67;22.67;;;;;;;;8848228;40;10230;-62
2021/07/10 04:05:41;;;;;;;;;17.50;17.25;;;;;;;;8847290;40;10881;-62
2021/07/10 04:11:43;;;;;;;;;18.67;17.33;;;;;;;;8823676;40;10437;-61
2021/07/10 04:17:45;;;;;;;;;23.00;19.75;;;;;;;;8823123;40;10952;-62
2021/07/10 04:23:48;;;;;;;;;20.00;18.75;;;;;;;;8823658;40;10631;-62
2021/07/10 04:29:49;;;;;;;;;21.25;20.00;;;;;;;;8823388;40;10797;-63
2021/07/10 04:35:51;;;;;;;;;21.00;18.75;;;;;;;;8823525;40;10611;-61
2021/07/10 04:41:53;;;;;;;;;19.00;17.75;;;;;;;;8823533;40;10547;-63
2021/07/10 04:47:55;;;;;;;;;19.25;18.75;;;;;;;;8824392;40;10738;-62
2021/07/10 04:53:57;;;;;;;;;18.25;18.25;;;;;;;;8823771;40;11767;-61
2021/07/10 04:59:59;;;;;;;;;18.50;18.50;;;;;;;;8823260;40;11148;-62
2021/07/10 05:06:01;;;;;;;;;16.00;16.00;;;;;;;;8823355;40;10717;-62
2021/07/10 05:12:03;;;;;;;;;18.00;17.75;;;;;;;;8822876;40;10550;-63
2021/07/10 05:18:06;;;;;;;;;17.50;17.50;;;;;;;;8823768;40;10689;-61
2021/07/10 05:24:08;;;;;;;;;18.75;17.75;;;;;;;;8822779;40;10491;-63
2021/07/10 05:30:13;;;;;;;;;14.75;14.75;;;;;;;;8832152;40;10492;-62
2021/07/10 05:36:15;;;;;;;;;20.50;16.75;;;;;;;;8850811;40;10512;-63
2021/07/10 05:42:17;;;;;;;;;15.75;15.00;;;;;;;;8851041;40;10318;-62
2021/07/10 05:48:19;;;;;;;;;14.50;14.50;;;;;;;;8848035;40;10335;-63
2021/07/10 05:54:21;;;;;;;;;16.00;14.00;;;;;;;;8843873;40;10605;-61
2021/07/10 06:00:23;;;;;;;;;15.50;11.75;;;;;;;;8849982;40;10216;-62
2021/07/10 06:06:25;;;;;;;;;14.25;12.50;;;;;;;;8849762;40;10725;-63
2021/07/10 06:12:27;;;;;;;;;17.25;15.00;;;;;;;;8851461;40;10451;-62
2021/07/10 06:18:29;;;;;;;;;13.50;13.25;;;;;;;;8849975;40;10282;-61
2021/07/10 06:24:31;;;;;;;;;16.00;16.00;;;;;;;;8834332;40;11078;-62
2021/07/10 06:30:33;;;;;;;;;14.00;13.50;;;;;;;;8826302;40;10281;-63
2021/07/10 06:36:39;;;;;;;;;13.75;13.75;;;;;;;;8825293;40;10310;-63
2021/07/10 06:42:42;;;;;;;;;16.00;16.00;;;;;;;;8824606;40;10399;-63
2021/07/10 06:48:44;;;;;;;;;15.75;15.75;;;;;;;;8827926;40;10357;-62
2021/07/10 06:54:46;;;;;;;;;18.00;14.75;;;;;;;;8849094;40;10358;-61
2021/07/10 07:00:48;;;;;;;;;12.50;12.50;;;;;;;;8850083;40;10429;-63
2021/07/10 07:06:50;;;;;;;;;15.25;14.75;;;;;;;;8849080;40;10521;-62
2021/07/10 07:12:52;;;;;;;;;14.75;14.00;;;;;;;;8848837;40;10266;-62
2021/07/10 07:18:54;;;;;;;;;17.75;15.25;;;;;;;;8851324;40;10290;-63
2021/07/10 07:24:56;;;;;;;;;14.25;14.25;;;;;;;;8839968;40;10306;-62
2021/07/10 07:30:58;;;;;;;;;15.75;14.00;;;;;;;;8850159;40;10286;-62
2021/07/10 07:36:59;;;;;;;;;13.00;13.00;;;;;;;;8849229;40;10298;-63
2021/07/10 07:43:02;;;;;;;;;11.50;11.50;;;;;;;;8848722;40;10971;-62
2021/07/10 07:49:05;;;;;;;;;13.75;10.50;;;;;;;;8848530;40;10291;-63
2021/07/10 07:55:08;;;;;;;;;13.50;13.50;;;;;;;;8848841;40;10296;-63
2021/07/10 08:01:11;;;;;;;;;10.50;10.50;;;;;;;;8848753;40;10324;-63
2021/07/10 08:07:14;;;;;;;;;9.00;9.00;;;;;;;;8848815;40;10208;-63
2021/07/10 08:13:17;;;;;;;;;9.75;8.00;;;;;;;;8849685;40;10351;-62
2021/07/10 08:19:19;;;;;;;;;12.00;11.75;;;;;;;;8847915;40;10310;-63
2021/07/10 08:25:21;;;;;;;;;10.75;9.50;;;;;;;;8849254;40;10513;-62
2021/07/10 08:31:23;;;;;;;;;9.00;8.50;;;;;;;;8847866;40;10468;-63
2021/07/10 08:37:26;;;;;;;;;11.75;9.25;;;;;;;;8848304;40;10295;-62
2021/07/10 08:43:28;;;;;;;;;8.75;8.75;;;;;;;;8848803;40;10194;-62
2021/07/10 08:49:30;;;;;;;;;9.75;9.25;;;;;;;;8846449;40;10127;-65
2021/07/10 08:55:33;;;;;;;;;7.00;7.00;;;;;;;;8847776;40;10160;-62
2021/07/10 09:01:36;;;;;;;;;10.25;10.25;;;;;;;;8844959;40;10220;-63
2021/07/10 09:08:21;;;;;;;;;10.25;10.25;;;;;;;;8846632;40;10309;-62
2021/07/10 09:14:30;;;;;;;;;21.50;20.00;;;;;;;;8847261;40;10343;-63
2021/07/10 09:20:33;;;;;;;;;12.25;11.00;;;;;;;;8848349;40;10286;-64
2021/07/10 09:26:41;;;;;;;;;9.25;9.25;;;;;;;;8847137;40;10776;-62
2021/07/10 09:32:44;;;;;;;;;22.00;21.75;;;;;;;;8846699;40;10351;-63
2021/07/10 09:38:52;;;;;;;;;19.75;18.75;;;;;;;;8847565;40;10515;-62
2021/07/10 09:44:55;;;;;;;;;12.75;11.00;;;;;;;;8845978;40;10357;-64
2021/07/10 09:51:18;;;;;;;;;8.75;8.75;;;;;;;;8822421;40;10217;-62
2021/07/10 09:57:26;;;;;;;;;10.00;10.00;;;;;;;;8822937;40;10362;-64
2021/07/10 10:03:34;;;;;;;;;14.50;14.50;;;;;;;;8823092;40;10518;-63
2021/07/10 10:09:36;;;;;;;;;12.25;10.50;;;;;;;;8844137;40;10329;-63
2021/07/10 10:15:40;;;;;;;;;9.75;9.75;;;;;;;;8846633;40;10248;-63
2021/07/10 10:21:44;;;;;;;;;11.50;11.50;;;;;;;;8850974;40;10298;-63
2021/07/10 10:27:51;;;;;;;;;11.75;11.75;;;;;;;;8850149;40;11378;-65
2021/07/10 10:33:53;;;;;;;;;11.75;8.75;;;;;;;;8849824;40;10326;-64
2021/07/10 10:39:55;;;;;;;;;14.50;12.25;;;;;;;;8850417;40;10270;-63
2021/07/10 10:46:11;;;;;;;;;8.75;8.00;;;;;;;;8844294;40;10453;-62
2021/07/10 10:52:22;;;;;;;;;13.75;12.50;;;;;;;;8825204;40;10309;-64
2021/07/10 10:58:30;;;;;;;;;9.25;9.25;;;;;;;;8834068;40;10248;-62
2021/07/10 11:04:48;;;;;;;;;9.25;8.25;;;;;;;;8849900;40;10218;-64
2021/07/10 11:10:53;;;;;;;;;10.75;10.75;;;;;;;;8848704;40;10284;-64
2021/07/10 11:17:00;;;;;;;;;9.50;9.00;;;;;;;;8836110;40;10325;-63
2021/07/10 11:23:02;;;;;;;;;10.75;10.75;;;;;;;;8824260;40;10257;-63
2021/07/10 11:29:17;;;;;;;;;13.00;11.25;;;;;;;;8824446;40;10274;-63
2021/07/10 11:35:33;;;;;;;;;10.25;10.25;;;;;;;;8824553;40;10322;-64
2021/07/10 11:41:35;;;;;;;;;10.75;10.75;;;;;;;;8824362;40;10298;-63
2021/07/10 11:47:48;;;;;;;;;9.50;9.50;;;;;;;;8836931;40;10211;-63
2021/07/10 11:53:57;;;;;;;;;13.00;11.50;;;;;;;;8849595;40;10214;-64
2021/07/10 11:59:59;;;;;;;;;13.50;12.25;;;;;;;;8849374;40;10366;-64
2021/07/10 12:06:02;;;;;;;;;11.50;11.50;;;;;;;;8831379;40;10288;-64
2021/07/10 12:12:04;;;;;;;;;9.25;8.00;;;;;;;;8848154;40;10204;-63
2021/07/10 12:18:09;;;;;;;;;12.00;12.00;;;;;;;;8848783;40;10316;-63
2021/07/10 12:24:11;;;;;;;;;14.50;14.50;;;;;;;;8849261;40;10943;-62
2021/07/10 12:30:14;;;;;;;;;15.25;14.50;;;;;;;;8848381;40;10354;-62
2021/07/10 12:36:18;;;;;;;;;15.50;14.25;;;;;;;;8848164;40;10322;-62
2021/07/10 12:42:21;;;;;;;;;15.00;15.00;;;;;;;;8846660;40;10275;-64
2021/07/10 12:48:23;;;;;;;;;14.00;14.00;;;;;;;;8849180;40;10290;-62
2021/07/10 12:54:53;;;;;;;;;18.50;18.50;;;;;;;;8846996;40;10294;-63
2021/07/10 13:00:55;;;;;;;;;14.00;14.00;;;;;;;;8847799;40;10510;-63
2021/07/10 13:06:59;;;;;;;;;16.25;16.00;;;;;;;;8847714;40;10944;-63
2021/07/10 13:13:10;;;;;;;;;16.00;12.50;;;;;;;;8846888;40;10539;-63
2021/07/10 13:19:12;;;;;;;;;16.25;16.25;;;;;;;;8848291;40;10350;-63
2021/07/10 13:25:14;;;;;;;;;12.75;12.75;;;;;;;;8846205;40;10256;-62
2021/07/10 13:31:21;;;;;;;;;15.50;14.00;;;;;;;;8836100;40;10310;-62
2021/07/10 13:37:24;;;;;;;;;26.00;26.00;;;;;;;;8840733;40;10308;-64
2021/07/10 13:43:26;;;;;;;;;12.75;12.75;;;;;;;;8846208;40;10330;-64
2021/07/10 13:49:34;;;;;;;;;16.50;16.50;;;;;;;;8832011;40;10607;-63
2021/07/10 13:55:36;;;;;;;;;14.25;14.25;;;;;;;;8825711;40;10376;-63
2021/07/10 14:01:44;;;;;;;;;18.75;18.50;;;;;;;;8826461;40;10341;-62
2021/07/10 14:07:50;;;;;;;;;16.25;15.75;;;;;;;;8826067;40;10601;-62
2021/07/10 14:13:52;;;;;;;;;14.00;14.00;;;;;;;;8826448;40;10574;-62
2021/07/10 14:19:55;;;;;;;;;13.25;12.50;;;;;;;;8825840;40;10280;-62
2021/07/10 14:25:58;;;;;;;;;15.00;12.25;;;;;;;;8824663;40;10512;-63
2021/07/10 14:32:00;;;;;;;;;11.50;11.50;;;;;;;;8836828;40;10323;-63
2021/07/10 14:38:04;;;;;;;;;12.75;12.75;;;;;;;;8848972;40;10205;-62
2021/07/10 14:44:06;;;;;;;;;14.00;14.00;;;;;;;;8847876;40;10336;-62
2021/07/10 14:50:11;;;;;;;;;13.25;13.25;;;;;;;;8847924;40;10864;-63
2021/07/10 14:56:13;;;;;;;;;16.75;15.75;;;;;;;;8833236;40;10344;-63
2021/07/10 15:02:14;;;;;;;;;15.00;15.00;;;;;;;;8813824;40;10269;-62
2021/07/10 15:08:16;;;;;;;;;17.50;15.50;;;;;;;;8824555;40;10550;-62
2021/07/10 15:14:18;;;;;;;;;16.75;16.75;;;;;;;;8823215;40;10295;-64
2021/07/10 15:20:22;;;;;;;;;14.50;13.75;;;;;;;;8822897;40;10275;-63
2021/07/10 15:26:24;;;;;;;;;17.50;17.50;;;;;;;;8823628;40;10354;-63
2021/07/10 15:32:27;;;;;;;;;20.50;18.00;;;;;;;;8823350;40;10295;-65
2021/07/10 15:38:29;;;;;;;;;18.00;17.25;;;;;;;;8823175;40;10297;-63
2021/07/10 15:44:31;;;;;;;;;16.25;16.00;;;;;;;;8808284;40;10331;-64
2021/07/10 15:50:33;;;;;;;;;17.25;17.25;;;;;;;;8823668;40;10593;-63
2021/07/10 15:56:35;;;;;;;;;17.00;16.25;;;;;;;;8823767;40;10811;-64
2021/07/10 16:02:37;;;;;;;;;16.25;16.25;;;;;;;;8832347;40;10799;-63
2021/07/10 16:08:39;;;;;;;;;13.50;13.50;;;;;;;;8847211;40;10314;-64
2021/07/10 16:14:41;;;;;;;;;16.75;15.00;;;;;;;;8830633;40;10558;-64
2021/07/10 16:20:43;;;;;;;;;18.75;17.50;;;;;;;;8822279;40;10523;-63
2021/07/10 16:26:49;;;;;;;;;16.25;16.25;;;;;;;;8822579;40;10315;-63
2021/07/10 16:32:53;;;;;;;;;21.75;21.00;;;;;;;;8822758;40;10273;-62
2021/07/10 16:38:56;;;;;;;;;19.25;18.25;;;;;;;;8822257;40;10599;-64
2021/07/10 16:44:58;;;;;;;;;17.00;16.75;;;;;;;;8821952;40;10385;-63
2021/07/10 16:51:01;;;;;;;;;13.75;13.75;;;;;;;;8837055;40;10341;-62
2021/07/10 16:57:03;;;;;;;;;16.25;16.25;;;;;;;;8820862;40;10565;-62
2021/07/10 17:03:05;;;;;;;;;15.00;13.50;;;;;;;;8821570;40;10331;-62
2021/07/10 17:09:10;;;;;;;;;16.50;15.00;;;;;;;;8821611;40;10284;-63
2021/07/10 17:15:14;;;;;;;;;18.75;17.50;;;;;;;;8822185;40;10443;-63
2021/07/10 17:21:16;;;;;;;;;24.25;19.00;;;;;;;;8820811;40;10360;-63
2021/07/10 17:27:18;;;;;;;;;23.50;22.00;;;;;;;;8823005;40;10339;-63
2021/07/10 17:33:20;;;;;;;;;20.50;20.50;;;;;;;;8823825;40;11138;-64
2021/07/10 17:39:24;;;;;;;;;22.50;22.00;;;;;;;;8824778;40;10647;-63
2021/07/10 17:45:26;;;;;;;;;19.75;18.25;;;;;;;;8824421;40;10281;-62
2021/07/10 17:51:30;;;;;;;;;17.00;17.00;;;;;;;;8824395;40;10338;-63
2021/07/10 17:57:32;;;;;;;;;22.00;22.00;;;;;;;;8824999;40;10524;-62
2021/07/10 18:03:34;;;;;;;;;22.50;20.00;;;;;;;;8824720;40;10327;-62
2021/07/10 18:09:36;;;;;;;;;20.00;19.75;;;;;;;;8824543;40;10396;-63
2021/07/10 18:15:38;;;;;;;;;25.00;24.00;;;;;;;;8824493;40;10605;-63
2021/07/10 18:21:40;;;;;;;;;27.00;26.00;;;;;;;;8824250;40;10332;-63
2021/07/10 18:27:43;;;;;;;;;29.50;25.00;;;;;;;;8824302;40;10333;-64
2021/07/10 18:33:45;;;;;;;;;24.25;24.25;;;;;;;;8817195;40;10346;-66
2021/07/10 18:39:47;;;;;;;;;23.25;22.75;;;;;;;;8823262;40;10342;-63
2021/07/10 18:45:49;;;;;;;;;25.00;24.50;;;;;;;;8823390;40;10394;-64
2021/07/10 18:51:51;;;;;;;;;26.50;25.00;;;;;;;;8823256;40;10309;-63
2021/07/10 18:57:53;;;;;;;;;24.25;23.75;;;;;;;;8824583;40;10390;-63
2021/07/10 19:03:59;;;;;;;;;20.75;20.75;;;;;;;;8823986;40;10387;-63
2021/07/10 19:10:00;;;;;;;;;30.00;26.75;;;;;;;;8823340;40;11095;-62
2021/07/10 19:16:03;;;;;;;;;26.25;26.25;;;;;;;;8823288;40;10385;-63
2021/07/10 19:22:05;;;;;;;;;26.25;26.25;;;;;;;;8822779;40;10523;-62
2021/07/10 19:28:07;;;;;;;;;39.50;33.25;;;;;;;;8823533;40;10464;-64
2021/07/10 19:34:09;;;;;;;;;28.75;27.50;;;;;;;;8826521;40;11238;-64
2021/07/10 19:40:14;;;;;;;;;37.00;32.00;;;;;;;;8847466;40;10337;-63
2021/07/10 19:46:16;;;;;;;;;37.25;33.75;;;;;;;;8846631;40;10418;-62
2021/07/10 19:52:19;;;;;;;;;29.25;29.00;;;;;;;;8841688;40;10446;-63
2021/07/10 19:58:20;;;;;;;;;24.50;24.25;;;;;;;;8822548;40;10692;-62
2021/07/10 20:04:23;;;;;;;;;27.75;24.50;;;;;;;;8823691;40;10563;-62
2021/07/10 20:10:25;;;;;;;;;24.25;24.25;;;;;;;;8822567;40;10364;-63
2021/07/10 20:16:27;;;;;;;;;27.00;26.75;;;;;;;;8822116;40;10568;-61
2021/07/10 20:22:29;;;;;;;;;20.50;20.50;;;;;;;;8822597;40;10486;-62
2021/07/10 20:28:35;;;;;;;;;26.25;25.25;;;;;;;;8846060;40;10467;-63
2021/07/10 20:34:37;;;;;;;;;25.00;24.50;;;;;;;;8846162;40;10375;-61
2021/07/10 20:40:39;;;;;;;;;23.00;20.50;;;;;;;;8846345;40;10428;-63
2021/07/10 20:46:41;;;;;;;;;25.50;25.50;;;;;;;;8837381;40;10418;-61
2021/07/10 20:52:44;;;;;;;;;27.50;26.00;;;;;;;;8846007;40;11285;-63
2021/07/10 20:58:46;;;;;;;;;28.50;25.75;;;;;;;;8845819;40;10393;-63
2021/07/10 21:04:48;;;;;;;;;28.75;26.50;;;;;;;;8846629;40;10561;-67
2021/07/10 21:10:50;;;;;;;;;29.25;24.50;;;;;;;;8846600;40;10485;-62
2021/07/10 21:16:52;;;;;;;;;27.50;26.00;;;;;;;;8846393;40;10472;-63
2021/07/10 21:22:58;;;;;;;;;23.50;22.50;;;;;;;;8845249;40;11042;-62
2021/07/10 21:29:00;;;;;;;;;25.00;24.00;;;;;;;;8845692;40;10462;-62
2021/07/10 21:35:06;;;;;;;;;30.25;27.25;;;;;;;;8845789;40;10541;-63
2021/07/10 21:41:08;;;;;;;;;25.00;24.00;;;;;;;;8845149;40;10999;-63
2021/07/10 21:47:10;;;;;;;;;26.75;24.00;;;;;;;;8845499;40;10584;-63
2021/07/10 21:53:12;;;;;;;;;26.00;22.50;;;;;;;;8826662;40;11099;-63
2021/07/10 21:59:14;;;;;;;;;22.00;22.00;;;;;;;;8821164;40;10668;-62
2021/07/10 22:05:16;;;;;;;;;25.50;21.50;;;;;;;;8821534;40;10443;-61
2021/07/10 22:11:18;;;;;;;;;26.75;25.50;;;;;;;;8821286;40;10821;-62
2021/07/10 22:17:20;;;;;;;;;25.25;25.00;;;;;;;;8823669;40;10592;-61
2021/07/10 22:23:21;;;;;;;;;27.00;26.00;;;;;;;;8840802;40;11110;-62
2021/07/10 22:29:23;;;;;;;;;31.00;31.00;;;;;;;;8848896;40;10752;-61
2021/07/10 22:35:25;;;;;;;;;22.75;20.25;;;;;;;;8847718;40;10688;-63
2021/07/10 22:41:27;;;;;;;;;22.25;22.25;;;;;;;;8846133;40;10627;-61
2021/07/10 22:47:29;;;;;;;;;25.00;22.00;;;;;;;;8823719;40;10822;-62
2021/07/10 22:53:33;;;;;;;;;25.50;24.75;;;;;;;;8823587;40;10852;-62
2021/07/10 22:59:34;;;;;;;;;26.75;26.00;;;;;;;;8824048;40;10746;-62
2021/07/10 23:05:37;;;;;;;;;25.00;25.00;;;;;;;;8840461;40;10403;-63
2021/07/10 23:11:39;;;;;;;;;26.00;26.00;;;;;;;;8847503;40;10677;-61
2021/07/10 23:17:41;;;;;;;;;27.75;27.00;;;;;;;;8847351;40;11296;-61
2021/07/10 23:23:44;;;;;;;;;24.00;23.50;;;;;;;;8848335;40;10709;-62
2021/07/10 23:29:48;;;;;;;;;28.33;24.67;;;;;;;;8826520;40;10668;-62
2021/07/10 23:35:51;;;;;;;;;31.33;29.00;;;;;;;;8822825;40;10015;-62
2021/07/10 23:41:53;;;;;;;;;28.00;26.33;;;;;;;;8823125;40;10481;-62
2021/07/10 23:47:57;;;;;;;;;30.00;29.00;;;;;;;;8822490;40;10290;-62
2021/07/10 23:53:59;;;;;;;;;30.00;26.25;;;;;;;;8813814;40;10732;-61
